Terminal Aerodrome Forecast
Issued by NWS

Home | Current Version | Previous Version | Text Only | Print | Product List | Glossary On
Versions: 1 2 3 4 5 6 7 8 9 10 11 12 13 14 15 16 17 18 19 20 21 22 23 24 25
000
FTUS46 KSEW 311720
TAFSEA
TAF
KSEA 311720Z 3118/0124 20014G22KT P6SM SCT025 BKN050 OVC120
      TEMPO 3120/3124 -RA BKN025 OVC050
     FM010000 20012G18KT P6SM -SHRA SCT020 BKN040 BKN080
     FM011200 20010KT P6SM -RA BKN020 OVC040=

USA.gov is the U.S. government's official web portal to all federal, state and local government web resources and services.